createdAt,value
2023-02-16T00:00:53.267Z,61.70
2023-02-16T00:01:53.298Z,65.50
2023-02-16T00:02:53.225Z,62.80
2023-02-16T00:03:53.335Z,64.80
2023-02-16T00:04:53.238Z,62.80
2023-02-16T00:05:53.208Z,62.80
2023-02-16T00:06:53.186Z,59.20
2023-02-16T00:07:53.184Z,67.20
2023-02-16T00:08:53.156Z,68.90
2023-02-16T00:09:53.188Z,60.10
2023-02-16T00:10:53.133Z,59.40
2023-02-16T00:11:53.163Z,55.90
2023-02-16T00:12:53.108Z,56.00
2023-02-16T00:13:53.292Z,64.50
2023-02-16T00:14:53.086Z,54.80
2023-02-16T00:15:53.134Z,61.60
2023-02-16T00:16:53.088Z,57.20
2023-02-16T00:17:53.062Z,55.60
2023-02-16T00:18:53.043Z,57.70
2023-02-16T00:19:53.058Z,64.10
2023-02-16T00:20:53.023Z,62.90
2023-02-16T00:21:52.997Z,65.60
2023-02-16T00:22:52.975Z,63.50
2023-02-16T00:23:52.971Z,68.90
2023-02-16T00:24:52.963Z,65.90
2023-02-16T00:25:52.978Z,63.90
2023-02-16T00:26:52.927Z,61.40
2023-02-16T00:27:52.905Z,65.90
2023-02-16T00:28:52.903Z,60.80
2023-02-16T00:29:53.012Z,72.00
2023-02-16T00:30:53.052Z,69.00
2023-02-16T00:31:52.982Z,64.70
2023-02-16T00:32:52.926Z,62.60
2023-02-16T00:33:52.852Z,66.20
2023-02-16T00:34:52.835Z,64.20
2023-02-16T00:35:52.859Z,67.40
2023-02-16T00:36:52.799Z,67.40
2023-02-16T00:37:52.804Z,67.10
2023-02-16T00:38:52.779Z,62.20
2023-02-16T00:39:52.786Z,66.10
2023-02-16T00:40:52.805Z,66.00
2023-02-16T00:41:52.751Z,60.80
2023-02-16T00:42:52.740Z,63.80
2023-02-16T00:43:52.720Z,64.20
2023-02-16T00:44:52.731Z,62.60
2023-02-16T00:45:52.748Z,67.00
2023-02-16T00:46:52.693Z,69.70
2023-02-16T00:47:52.705Z,66.60
2023-02-16T00:48:52.650Z,66.80
2023-02-16T00:49:52.673Z,64.80
2023-02-16T00:50:52.653Z,64.50
2023-02-16T00:51:52.641Z,65.40
2023-02-16T00:52:52.614Z,58.60
2023-02-16T00:53:52.599Z,63.40
2023-02-16T00:54:52.605Z,66.70
2023-02-16T00:55:52.595Z,67.50
2023-02-16T00:56:52.570Z,65.20
2023-02-16T00:57:52.562Z,63.60
2023-02-16T00:58:52.557Z,66.00
2023-02-16T00:59:52.521Z,68.50
2023-02-16T01:00:52.527Z,68.20
2023-02-16T01:01:52.566Z,64.20
2023-02-16T01:02:52.484Z,71.00
2023-02-16T01:03:52.492Z,70.20
2023-02-16T01:04:52.493Z,62.20
2023-02-16T01:05:52.459Z,65.50
2023-02-16T01:06:52.461Z,63.50
2023-02-16T01:07:52.452Z,64.00
2023-02-16T01:08:52.401Z,63.20
2023-02-16T01:09:52.394Z,65.70
2023-02-16T01:10:52.389Z,62.00
2023-02-16T01:11:52.414Z,64.60
2023-02-16T01:12:52.352Z,60.00
2023-02-16T01:13:52.377Z,63.20
2023-02-16T01:14:52.341Z,63.50
2023-02-16T01:15:52.354Z,65.60
2023-02-16T01:16:52.308Z,64.70
2023-02-16T01:17:52.306Z,59.10
2023-02-16T01:18:52.258Z,59.90
2023-02-16T01:19:52.275Z,56.40
2023-02-16T01:20:52.287Z,58.80
2023-02-16T01:21:52.255Z,58.00
2023-02-16T01:22:52.218Z,60.30
2023-02-16T01:23:52.217Z,60.40
2023-02-16T01:24:52.201Z,59.20
2023-02-16T01:25:52.227Z,63.60
2023-02-16T01:26:52.158Z,56.70
2023-02-16T01:27:52.179Z,61.00
2023-02-16T01:28:52.172Z,58.10
2023-02-16T01:29:52.182Z,59.20
2023-02-16T01:30:52.289Z,59.40
2023-02-16T01:31:52.237Z,58.40
2023-02-16T01:32:52.091Z,57.40
2023-02-16T01:33:52.085Z,58.80
2023-02-16T01:34:52.069Z,61.30
2023-02-16T01:35:52.122Z,58.10
2023-02-16T01:36:52.048Z,60.80
2023-02-16T01:37:52.038Z,55.00
2023-02-16T01:38:52.029Z,59.60
2023-02-16T01:39:51.998Z,60.80
2023-02-16T01:40:51.997Z,58.80
2023-02-16T01:41:52.027Z,59.90
2023-02-16T01:42:51.981Z,56.60
2023-02-16T01:43:51.959Z,60.20
2023-02-16T01:44:51.946Z,62.20
2023-02-16T01:45:51.948Z,60.10
2023-02-16T01:46:52.069Z,58.70
2023-02-16T01:47:51.908Z,55.10
2023-02-16T01:48:51.914Z,54.70
2023-02-16T01:49:51.889Z,53.10
2023-02-16T01:50:51.889Z,54.70
2023-02-16T01:51:51.861Z,61.20
2023-02-16T01:52:51.860Z,59.70
2023-02-16T01:53:51.844Z,62.40
2023-02-16T01:54:51.826Z,56.60
2023-02-16T01:55:51.828Z,60.80
2023-02-16T01:56:51.801Z,59.30
2023-02-16T01:57:51.778Z,58.00
2023-02-16T01:58:51.789Z,62.10
2023-02-16T01:59:51.810Z,60.80
2023-02-16T02:00:51.783Z,62.40
2023-02-16T02:01:51.804Z,55.10
2023-02-16T02:02:51.757Z,61.30
2023-02-16T02:03:51.709Z,64.60
2023-02-16T02:04:51.703Z,62.80
2023-02-16T02:05:51.697Z,58.90
2023-02-16T02:06:51.676Z,63.00
2023-02-16T02:07:51.661Z,61.10
2023-02-16T02:08:51.701Z,62.20
2023-02-16T02:09:51.639Z,60.60
2023-02-16T02:10:51.640Z,60.60
2023-02-16T02:11:51.591Z,59.80
2023-02-16T02:12:51.619Z,57.30
2023-02-16T02:13:51.609Z,56.70
2023-02-16T02:14:51.593Z,54.30
2023-02-16T02:15:51.603Z,51.40
2023-02-16T02:16:51.548Z,55.70
2023-02-16T02:17:51.528Z,58.00
2023-02-16T02:18:51.554Z,54.80
2023-02-16T02:19:51.513Z,50.70
2023-02-16T02:20:51.495Z,56.30
2023-02-16T02:21:51.478Z,55.60
2023-02-16T02:22:51.491Z,54.00
2023-02-16T02:23:51.457Z,52.90
2023-02-16T02:24:51.459Z,49.50
2023-02-16T02:25:51.431Z,55.30
2023-02-16T02:26:51.431Z,58.80
2023-02-16T02:27:51.409Z,57.30
2023-02-16T02:28:51.415Z,55.00
2023-02-16T02:29:51.510Z,52.70
2023-02-16T02:30:51.437Z,58.00
2023-02-16T02:31:51.433Z,60.90
2023-02-16T02:32:51.365Z,57.30
2023-02-16T02:33:51.328Z,52.70
2023-02-16T02:34:51.332Z,58.90
2023-02-16T02:35:51.320Z,60.30
2023-02-16T02:36:51.298Z,50.20
2023-02-16T02:37:51.289Z,55.50
2023-02-16T02:38:51.273Z,51.70
2023-02-16T02:39:51.261Z,48.70
2023-02-16T02:40:51.258Z,49.60
2023-02-16T02:41:51.239Z,56.70
2023-02-16T02:42:51.228Z,56.00
2023-02-16T02:43:51.199Z,57.10
2023-02-16T02:44:51.216Z,48.90
2023-02-16T02:45:51.189Z,51.20
2023-02-16T02:46:51.238Z,55.60
2023-02-16T02:47:51.160Z,57.50
2023-02-16T02:48:51.153Z,57.10
2023-02-16T02:49:51.130Z,54.90
2023-02-16T02:50:51.132Z,51.50
2023-02-16T02:51:51.112Z,48.20
2023-02-16T02:52:51.098Z,50.10
2023-02-16T02:53:51.086Z,48.90
2023-02-16T02:54:51.081Z,47.60
2023-02-16T02:55:51.078Z,52.10
2023-02-16T02:56:51.058Z,48.40
2023-02-16T02:57:51.028Z,53.70
2023-02-16T02:58:51.028Z,47.10
2023-02-16T02:59:51.012Z,45.30
2023-02-16T03:00:51.083Z,51.30
2023-02-16T03:01:51.030Z,46.70
2023-02-16T03:02:50.991Z,50.30
2023-02-16T03:03:50.971Z,47.70
2023-02-16T03:04:50.944Z,50.50
2023-02-16T03:05:50.970Z,52.50
2023-02-16T03:06:50.918Z,49.80
2023-02-16T03:07:50.911Z,50.50
2023-02-16T03:08:50.900Z,47.20
2023-02-16T03:09:50.882Z,45.20
2023-02-16T03:10:50.886Z,48.30
2023-02-16T03:11:50.863Z,45.40
2023-02-16T03:12:50.847Z,49.80
2023-02-16T03:13:50.823Z,50.70
2023-02-16T03:14:50.828Z,50.40
2023-02-16T03:15:50.812Z,51.70
2023-02-16T03:16:50.788Z,48.70
2023-02-16T03:17:50.778Z,46.60
2023-02-16T03:18:50.768Z,48.60
2023-02-16T03:19:50.771Z,45.60
2023-02-16T03:20:50.756Z,49.70
2023-02-16T03:21:50.750Z,49.60
2023-02-16T03:22:50.727Z,46.40
2023-02-16T03:23:50.698Z,45.70
2023-02-16T03:24:50.702Z,47.80
2023-02-16T03:25:50.720Z,45.30
2023-02-16T03:26:50.676Z,45.90
2023-02-16T03:27:50.646Z,46.00
2023-02-16T03:28:50.648Z,48.20
2023-02-16T03:29:50.628Z,49.30
2023-02-16T03:30:50.730Z,47.10
2023-02-16T03:31:50.704Z,51.20
2023-02-16T03:32:50.590Z,46.60
2023-02-16T03:33:50.585Z,52.60
2023-02-16T03:34:50.565Z,45.70
2023-02-16T03:35:50.564Z,47.10
2023-02-16T03:36:50.768Z,48.70
2023-02-16T03:37:50.567Z,47.80
2023-02-16T03:38:50.767Z,42.30
2023-02-16T03:39:50.544Z,41.70
2023-02-16T03:40:50.492Z,45.90
2023-02-16T03:41:50.494Z,45.00
2023-02-16T03:42:50.457Z,42.60
2023-02-16T03:43:50.444Z,42.50
2023-02-16T03:44:50.440Z,47.60
2023-02-16T03:45:50.451Z,39.40
2023-02-16T03:46:50.426Z,46.90
2023-02-16T03:47:50.430Z,40.10
2023-02-16T03:48:50.424Z,41.10
2023-02-16T03:49:50.373Z,45.80
2023-02-16T04:03:13.283Z,41.00
2023-02-16T04:04:13.299Z,39.50
2023-02-16T04:05:13.245Z,40.50
2023-02-16T04:06:13.209Z,39.30
2023-02-16T04:07:13.228Z,41.80
2023-02-16T04:08:13.207Z,44.00
2023-02-16T04:09:13.211Z,39.60
2023-02-16T04:10:13.198Z,38.80
2023-02-16T04:11:20.688Z,42.20
2023-02-16T04:12:13.148Z,41.20
2023-02-16T04:13:13.145Z,43.50
2023-02-16T04:14:13.155Z,37.00
2023-02-16T04:15:13.108Z,41.60
2023-02-16T04:16:13.105Z,45.80
2023-02-16T04:17:13.114Z,44.30
2023-02-16T04:18:13.070Z,38.80
2023-02-16T04:19:13.062Z,41.70
2023-02-16T04:20:13.050Z,45.70
2023-02-16T04:21:13.043Z,44.90
2023-02-16T04:22:13.029Z,44.40
2023-02-16T04:23:13.009Z,42.00
2023-02-16T04:24:13.002Z,44.50
2023-02-16T04:25:13.012Z,46.30
2023-02-16T04:26:13.039Z,46.50
2023-02-16T04:27:12.967Z,39.40
2023-02-16T04:28:12.956Z,39.90
2023-02-16T04:29:12.930Z,40.00
2023-02-16T04:30:12.969Z,40.10
2023-02-16T04:31:13.093Z,40.90
2023-02-16T04:32:12.966Z,42.30
2023-02-16T04:33:12.885Z,43.00
2023-02-16T04:34:12.869Z,40.20
2023-02-16T04:35:12.873Z,42.50
2023-02-16T04:36:12.836Z,44.70
2023-02-16T04:37:12.867Z,45.10
2023-02-16T04:38:12.823Z,42.10
2023-02-16T04:39:12.815Z,44.90
2023-02-16T04:40:12.815Z,44.70
2023-02-16T04:41:12.796Z,44.60
2023-02-16T04:42:12.763Z,43.80
2023-02-16T04:43:12.765Z,43.20
2023-02-16T04:44:12.734Z,40.60
2023-02-16T04:45:12.723Z,40.90
2023-02-16T04:46:12.771Z,41.90
2023-02-16T04:47:12.705Z,42.30
2023-02-16T04:48:12.717Z,45.00
2023-02-16T04:49:12.684Z,37.50
2023-02-16T04:50:12.654Z,38.40
2023-02-16T04:51:12.693Z,41.50
2023-02-16T04:52:12.657Z,35.60
2023-02-16T04:53:12.679Z,41.50
2023-02-16T04:54:12.644Z,41.30
2023-02-16T04:55:12.623Z,38.10
2023-02-16T04:56:12.609Z,36.80
2023-02-16T04:57:12.594Z,40.80
2023-02-16T04:58:12.583Z,45.20
2023-02-16T04:59:12.583Z,40.00
2023-02-16T05:00:12.562Z,41.60
2023-02-16T05:01:12.594Z,40.90
2023-02-16T05:02:12.525Z,43.50
2023-02-16T05:03:12.544Z,38.50
2023-02-16T05:04:12.566Z,41.40
2023-02-16T05:05:12.528Z,39.50
2023-02-16T05:06:12.487Z,39.90
2023-02-16T05:07:12.460Z,44.00
2023-02-16T05:08:12.462Z,41.20
2023-02-16T05:09:12.440Z,38.00
2023-02-16T05:10:12.418Z,41.40
2023-02-16T05:11:12.417Z,43.70
2023-02-16T05:12:12.403Z,37.80
2023-02-16T05:13:12.393Z,44.90
2023-02-16T05:14:12.388Z,41.50
2023-02-16T05:15:12.402Z,44.10
2023-02-16T05:16:12.374Z,43.50
2023-02-16T05:17:12.347Z,47.10
2023-02-16T05:18:12.362Z,42.70
2023-02-16T05:19:12.497Z,46.60
2023-02-16T05:20:12.296Z,39.20
2023-02-16T05:21:12.273Z,44.00
2023-02-16T05:22:12.289Z,42.30
2023-02-16T05:23:12.288Z,45.60
2023-02-16T05:24:12.259Z,45.00
2023-02-16T05:25:12.253Z,41.00
2023-02-16T05:26:12.212Z,44.60
2023-02-16T05:27:12.216Z,41.90
2023-02-16T05:28:12.272Z,41.60
2023-02-16T05:29:12.196Z,44.10
2023-02-16T05:30:12.215Z,40.10
2023-02-16T05:31:12.261Z,40.20
2023-02-16T05:32:12.228Z,44.30
2023-02-16T05:33:12.144Z,41.90
2023-02-16T05:34:12.152Z,45.80
2023-02-16T05:35:12.114Z,46.40
2023-02-16T05:36:12.133Z,44.50
2023-02-16T05:37:12.102Z,44.70
2023-02-16T05:38:12.111Z,44.10
2023-02-16T05:39:12.066Z,47.50
2023-02-16T05:40:12.065Z,48.50
2023-02-16T05:41:12.037Z,47.10
2023-02-16T05:42:12.048Z,45.70
2023-02-16T05:43:12.030Z,47.50
2023-02-16T05:44:12.007Z,43.40
2023-02-16T05:45:12.010Z,43.30
2023-02-16T05:46:11.987Z,44.10
2023-02-16T05:47:11.962Z,42.10
2023-02-16T05:48:11.977Z,40.60
2023-02-16T05:49:11.957Z,43.60
2023-02-16T05:50:11.951Z,39.90
2023-02-16T05:51:11.920Z,45.00
2023-02-16T05:52:11.905Z,43.10
2023-02-16T05:53:11.923Z,44.70
2023-02-16T05:54:11.879Z,47.30
2023-02-16T05:55:11.962Z,46.40
2023-02-16T05:56:11.859Z,41.50
2023-02-16T05:57:11.864Z,41.00
2023-02-16T05:58:11.849Z,45.90
2023-02-16T05:59:11.859Z,45.20
2023-02-16T06:00:11.790Z,50.50
2023-02-16T06:01:11.788Z,44.30
2023-02-16T06:02:11.778Z,46.90
2023-02-16T06:03:11.761Z,47.40
2023-02-16T06:04:11.773Z,45.60
2023-02-16T06:05:11.766Z,44.50
2023-02-16T06:06:11.773Z,44.80
2023-02-16T06:07:14.646Z,40.40
2023-02-16T06:08:11.713Z,40.00
2023-02-16T06:09:11.726Z,40.80
2023-02-16T06:10:11.679Z,42.10
2023-02-16T06:11:11.668Z,42.60
2023-02-16T06:12:11.648Z,41.40
2023-02-16T06:13:11.651Z,39.70
2023-02-16T06:14:11.647Z,39.70
2023-02-16T06:15:11.650Z,40.80
2023-02-16T06:16:11.650Z,41.50
2023-02-16T06:17:11.598Z,42.70
2023-02-16T06:18:11.575Z,42.30
2023-02-16T06:19:11.572Z,42.50
2023-02-16T06:20:11.578Z,44.00
2023-02-16T06:21:11.540Z,42.90
2023-02-16T06:22:11.568Z,44.10
2023-02-16T06:23:11.523Z,45.80
2023-02-16T06:24:11.521Z,46.10
2023-02-16T06:25:11.490Z,48.50
2023-02-16T06:26:11.469Z,45.80
2023-02-16T06:27:11.470Z,49.20
2023-02-16T06:28:11.441Z,55.80
2023-02-16T06:29:11.450Z,53.60
2023-02-16T06:30:11.492Z,59.10
2023-02-16T06:31:11.507Z,59.30
2023-02-16T06:32:11.518Z,53.50
2023-02-16T06:33:11.378Z,51.00
2023-02-16T06:34:11.407Z,50.60
2023-02-16T06:35:11.387Z,43.90
2023-02-16T06:36:11.357Z,44.10
2023-02-16T06:37:11.356Z,44.40
2023-02-16T06:38:11.360Z,45.20
2023-02-16T06:39:11.345Z,47.50
2023-02-16T06:40:11.297Z,47.70
2023-02-16T06:41:11.276Z,47.80
2023-02-16T06:42:11.288Z,46.60
2023-02-16T06:43:11.257Z,48.60
2023-02-16T06:44:11.274Z,44.30
2023-02-16T06:45:11.227Z,45.20
2023-02-16T06:46:11.270Z,44.20
2023-02-16T06:47:11.221Z,46.60
2023-02-16T06:48:11.206Z,45.90
2023-02-16T06:49:11.202Z,39.70
2023-02-16T06:50:11.189Z,39.60
2023-02-16T06:51:11.166Z,40.30
2023-02-16T06:52:11.152Z,41.70
2023-02-16T06:53:11.127Z,46.10
2023-02-16T06:54:11.141Z,44.50
2023-02-16T06:55:11.126Z,39.60
2023-02-16T06:56:11.099Z,43.00
2023-02-16T06:57:11.097Z,44.40
2023-02-16T06:58:11.088Z,45.90
2023-02-16T06:59:11.054Z,40.10
2023-02-16T07:00:11.066Z,43.10
2023-02-16T07:01:11.097Z,41.70
2023-02-16T07:02:11.033Z,42.30
2023-02-16T07:03:11.065Z,43.10
2023-02-16T07:04:11.036Z,44.90
2023-02-16T07:05:10.994Z,44.00
2023-02-16T07:06:10.999Z,44.20
2023-02-16T07:07:10.967Z,48.90
2023-02-16T07:08:10.956Z,43.30
2023-02-16T07:09:12.743Z,44.40
2023-02-16T07:10:10.945Z,47.90
2023-02-16T07:11:10.913Z,45.90
2023-02-16T07:12:10.895Z,46.50
2023-02-16T07:13:10.901Z,44.70
2023-02-16T07:14:10.869Z,42.20
2023-02-16T07:15:10.906Z,43.70
2023-02-16T07:16:10.892Z,39.90
2023-02-16T07:17:10.835Z,42.60
2023-02-16T07:18:10.828Z,43.50
2023-02-16T07:19:10.800Z,36.90
2023-02-16T07:20:10.824Z,41.10
2023-02-16T07:21:10.784Z,37.20
2023-02-16T07:22:10.782Z,38.20
2023-02-16T07:23:10.756Z,39.80
2023-02-16T07:24:10.746Z,41.60
2023-02-16T07:25:10.757Z,44.20
2023-02-16T07:26:10.723Z,41.10
2023-02-16T07:27:10.705Z,45.60
2023-02-16T07:28:10.717Z,47.00
2023-02-16T07:29:10.677Z,47.40
2023-02-16T07:30:10.702Z,46.20
2023-02-16T07:31:10.817Z,48.30
2023-02-16T07:32:10.704Z,43.90
2023-02-16T07:33:10.651Z,42.00
2023-02-16T07:34:10.635Z,42.80
2023-02-16T07:35:10.615Z,42.90
2023-02-16T07:36:10.646Z,42.50
2023-02-16T07:37:10.573Z,40.10
2023-02-16T07:38:10.571Z,37.20
2023-02-16T07:39:10.563Z,37.80
2023-02-16T07:40:10.587Z,34.40
2023-02-16T07:41:11.093Z,35.90
2023-02-16T07:42:10.521Z,35.00
2023-02-16T07:43:10.511Z,35.30
2023-02-16T07:44:10.522Z,36.30
2023-02-16T07:45:10.480Z,34.60
2023-02-16T07:46:10.531Z,33.90
2023-02-16T07:47:10.452Z,36.70
2023-02-16T07:48:10.432Z,38.40
2023-02-16T07:49:10.457Z,35.60
2023-02-16T07:50:10.412Z,35.50
2023-02-16T07:51:10.406Z,35.40
2023-02-16T07:52:10.388Z,33.00
2023-02-16T07:53:12.808Z,35.10
2023-02-16T07:54:10.370Z,37.80
2023-02-16T07:55:10.372Z,36.70
2023-02-16T07:56:10.330Z,39.90
2023-02-16T07:57:10.362Z,36.50
2023-02-16T07:58:10.325Z,35.90
2023-02-16T07:59:10.302Z,35.60
2023-02-16T08:00:10.304Z,36.20
2023-02-16T08:01:10.309Z,34.30
2023-02-16T08:02:10.399Z,34.50
2023-02-16T08:03:10.420Z,41.00
2023-02-16T08:04:10.239Z,39.30
2023-02-16T08:05:10.228Z,39.20
2023-02-16T08:06:10.239Z,35.60
2023-02-16T08:07:10.191Z,35.30
2023-02-16T08:08:10.201Z,35.10
2023-02-16T08:09:10.177Z,37.70
2023-02-16T08:10:10.177Z,36.90
2023-02-16T08:11:10.204Z,37.50
2023-02-16T08:12:10.157Z,35.90
2023-02-16T08:13:10.158Z,38.70
2023-02-16T08:14:10.114Z,39.90
2023-02-16T08:15:10.093Z,38.70
2023-02-16T08:16:10.158Z,38.20
2023-02-16T08:17:10.200Z,36.40
2023-02-16T08:18:10.072Z,38.50
2023-02-16T08:19:10.151Z,37.00
2023-02-16T08:20:10.043Z,35.60
2023-02-16T08:21:10.034Z,37.30
2023-02-16T08:22:10.029Z,38.30
2023-02-16T08:23:10.025Z,36.70
2023-02-16T08:24:09.986Z,37.00
2023-02-16T08:25:09.975Z,36.60
2023-02-16T08:26:09.999Z,40.20
2023-02-16T08:27:09.976Z,36.70
2023-02-16T08:28:09.975Z,36.70
2023-02-16T08:29:09.924Z,39.20
2023-02-16T08:30:10.001Z,37.20
2023-02-16T08:31:09.953Z,38.20
2023-02-16T08:32:09.925Z,34.70
2023-02-16T08:33:09.877Z,36.10
2023-02-16T08:34:09.915Z,34.80
2023-02-16T08:35:09.844Z,36.50
2023-02-16T08:36:09.870Z,36.40
2023-02-16T08:37:09.837Z,36.20
2023-02-16T08:38:09.807Z,33.20
2023-02-16T08:39:09.812Z,34.90
2023-02-16T08:40:09.803Z,35.80
2023-02-16T08:41:09.782Z,37.20
2023-02-16T08:42:09.758Z,36.30
2023-02-16T08:43:09.787Z,31.50
2023-02-16T08:44:09.742Z,33.20
2023-02-16T08:45:09.709Z,34.20
2023-02-16T08:46:09.748Z,33.00
2023-02-16T08:47:09.729Z,31.00
2023-02-16T08:48:09.719Z,33.80
2023-02-16T08:49:09.719Z,33.90
2023-02-16T08:50:09.659Z,32.80
2023-02-16T08:51:09.660Z,33.20
2023-02-16T08:52:09.637Z,32.70
2023-02-16T08:53:09.654Z,31.70
2023-02-16T08:54:09.626Z,31.00
2023-02-16T08:55:09.575Z,33.00
2023-02-16T08:56:09.606Z,30.20
2023-02-16T08:57:09.589Z,29.70
2023-02-16T08:58:09.555Z,32.80
2023-02-16T08:59:09.541Z,29.50
2023-02-16T09:00:09.520Z,30.20
2023-02-16T09:01:09.548Z,30.00
2023-02-16T09:02:09.545Z,27.00
2023-02-16T09:03:09.826Z,27.60
2023-02-16T09:04:09.474Z,27.30
2023-02-16T09:05:09.449Z,26.20
2023-02-16T09:06:18.143Z,27.70
2023-02-16T09:07:09.432Z,25.70
2023-02-16T09:08:09.416Z,26.10
2023-02-16T09:09:09.406Z,26.00
2023-02-16T09:10:09.398Z,26.40
2023-02-16T09:11:09.387Z,25.90
2023-02-16T09:12:09.368Z,27.00
2023-02-16T09:13:09.348Z,25.80
2023-02-16T09:14:09.522Z,24.50
2023-02-16T09:15:09.316Z,26.30
2023-02-16T09:16:09.330Z,25.60
2023-02-16T09:17:09.353Z,24.60
2023-02-16T09:18:09.290Z,24.70
2023-02-16T09:20:01.473Z,23.30
2023-02-16T09:21:01.466Z,23.50
2023-02-16T09:22:01.475Z,26.60
2023-02-16T09:23:01.450Z,25.80
2023-02-16T09:24:01.426Z,23.30
2023-02-16T09:25:01.422Z,24.40
2023-02-16T09:26:01.660Z,22.10
2023-02-16T09:27:01.387Z,21.80
2023-02-16T09:28:01.414Z,21.70
2023-02-16T09:29:01.369Z,22.50
2023-02-16T09:30:01.446Z,20.80
2023-02-16T09:31:01.494Z,20.90
2023-02-16T09:32:01.414Z,21.00
2023-02-16T09:33:01.345Z,19.80
2023-02-16T09:34:01.326Z,19.70
2023-02-16T09:35:01.287Z,19.30
2023-02-16T09:36:01.296Z,19.50
2023-02-16T09:37:01.278Z,20.10
2023-02-16T09:38:01.267Z,18.40
2023-02-16T09:39:01.236Z,17.50
2023-02-16T09:40:01.247Z,17.60
2023-02-16T09:41:01.215Z,18.40
2023-02-16T09:42:01.196Z,17.60
2023-02-16T09:43:01.207Z,16.90
2023-02-16T09:44:01.184Z,17.80
2023-02-16T09:45:01.157Z,18.30
2023-02-16T09:46:01.209Z,17.10
2023-02-16T09:47:01.154Z,16.90
2023-02-16T10:04:17.579Z,14.30
2023-02-16T10:05:17.617Z,14.30
2023-02-16T10:06:17.514Z,15.20
2023-02-16T10:07:17.496Z,15.30
2023-02-16T10:08:17.493Z,14.30
2023-02-16T10:09:17.467Z,15.30
2023-02-16T10:10:17.481Z,14.90
2023-02-16T10:11:17.459Z,14.80
2023-02-16T10:12:17.437Z,15.10
2023-02-16T10:13:17.425Z,14.40
2023-02-16T10:14:17.410Z,14.20
2023-02-16T10:15:17.417Z,14.40
2023-02-16T10:16:17.394Z,13.90
2023-02-16T10:17:17.387Z,14.30
2023-02-16T10:18:24.869Z,13.30
2023-02-16T10:19:17.349Z,14.60
2023-02-16T10:20:17.346Z,14.30
2023-02-16T10:21:17.320Z,14.80
2023-02-16T10:22:17.699Z,14.20
2023-02-16T10:23:17.290Z,14.30
2023-02-16T10:24:17.299Z,14.20
2023-02-16T10:25:17.269Z,13.50
2023-02-16T10:26:17.283Z,14.20
2023-02-16T10:27:17.262Z,14.80
2023-02-16T10:28:17.222Z,15.00
2023-02-16T10:29:17.233Z,14.00
2023-02-16T10:30:17.220Z,14.60
2023-02-16T10:31:17.291Z,14.20
2023-02-16T10:32:17.195Z,14.10
2023-02-16T10:33:17.190Z,14.20
2023-02-16T10:34:17.166Z,13.80
2023-02-16T10:35:17.151Z,13.70
2023-02-16T10:36:17.167Z,13.80
2023-02-16T10:37:17.126Z,13.90
2023-02-16T10:38:17.108Z,15.10
2023-02-16T10:39:17.110Z,16.40
2023-02-16T10:40:17.098Z,13.60
2023-02-16T10:41:17.097Z,14.40
2023-02-16T10:42:17.068Z,13.10
2023-02-16T10:43:17.061Z,15.60
2023-02-16T10:44:17.041Z,14.40
2023-02-16T10:45:17.051Z,14.20
2023-02-16T10:46:17.077Z,12.80
2023-02-16T10:47:17.016Z,13.90
2023-02-16T10:48:16.987Z,13.60
2023-02-16T10:49:16.987Z,13.30
2023-02-16T10:50:16.987Z,15.70
2023-02-16T10:51:16.956Z,13.80
2023-02-16T10:52:16.949Z,14.00
2023-02-16T10:53:16.919Z,15.30
2023-02-16T10:54:16.917Z,14.50
2023-02-16T10:55:16.918Z,13.70
2023-02-16T10:56:16.890Z,14.40
2023-02-16T10:57:16.902Z,14.20
2023-02-16T10:58:16.874Z,13.30
2023-02-16T10:59:16.871Z,14.80
2023-02-16T11:00:16.900Z,12.70
2023-02-16T11:01:16.872Z,13.20
2023-02-16T11:02:16.830Z,12.70
2023-02-16T11:03:16.809Z,13.10
2023-02-16T11:04:16.853Z,12.70
2023-02-16T11:05:16.778Z,12.80
2023-02-16T11:06:16.778Z,14.50
2023-02-16T11:07:16.780Z,13.20
2023-02-16T11:08:16.748Z,13.00
2023-02-16T11:09:16.726Z,12.70
2023-02-16T11:10:16.722Z,13.30
2023-02-16T11:11:16.708Z,12.80
2023-02-16T11:12:16.705Z,12.40
2023-02-16T11:13:16.702Z,13.50
2023-02-16T11:14:16.665Z,12.50
2023-02-16T11:15:16.658Z,12.40
2023-02-16T11:16:16.687Z,13.10
2023-02-16T11:17:16.658Z,12.60
2023-02-16T11:18:16.628Z,12.00
2023-02-16T11:19:16.597Z,13.40
2023-02-16T11:20:16.595Z,12.20
2023-02-16T11:21:16.578Z,12.80
2023-02-16T11:22:16.567Z,12.40
2023-02-16T11:23:16.552Z,12.60
2023-02-16T11:24:16.556Z,12.80
2023-02-16T11:25:16.519Z,12.90
2023-02-16T11:26:16.571Z,11.20
2023-02-16T11:27:16.519Z,11.40
2023-02-16T11:28:16.497Z,12.30
2023-02-16T11:29:16.482Z,12.60
2023-02-16T11:30:16.513Z,12.30
2023-02-16T11:31:16.564Z,12.60
2023-02-16T11:32:16.517Z,12.40
2023-02-16T11:33:16.441Z,12.10
2023-02-16T11:34:16.434Z,13.00
2023-02-16T11:35:16.406Z,12.60
2023-02-16T11:36:16.395Z,12.30
2023-02-16T11:37:16.385Z,12.40
2023-02-16T11:38:16.376Z,12.30
2023-02-16T11:39:16.391Z,11.80
2023-02-16T11:40:16.342Z,12.30
2023-02-16T11:41:16.313Z,11.80
2023-02-16T11:42:16.334Z,12.00
2023-02-16T11:43:16.317Z,12.50
2023-02-16T11:44:18.975Z,12.20
2023-02-16T11:45:16.262Z,13.20
2023-02-16T11:46:16.275Z,12.60
2023-02-16T11:47:16.250Z,12.80
2023-02-16T11:48:16.249Z,11.60
2023-02-16T11:49:16.219Z,11.80
2023-02-16T11:50:16.196Z,12.50
2023-02-16T11:51:16.178Z,11.20
2023-02-16T11:52:16.179Z,17.70
2023-02-16T11:53:16.262Z,12.00
2023-02-16T11:54:16.171Z,12.60
2023-02-16T11:55:16.173Z,12.20
2023-02-16T11:56:16.131Z,12.30
2023-02-16T11:57:16.121Z,17.10
2023-02-16T11:58:16.124Z,12.30
2023-02-16T11:59:16.102Z,12.40
2023-02-16T12:00:16.125Z,11.60
2023-02-16T12:01:16.056Z,11.90
2023-02-16T12:02:16.055Z,11.70
2023-02-16T12:03:16.110Z,11.60
2023-02-16T12:04:16.072Z,12.20
2023-02-16T12:05:16.219Z,11.20
2023-02-16T12:06:16.006Z,11.50
2023-02-16T12:07:15.997Z,11.30
2023-02-16T12:08:15.997Z,11.90
2023-02-16T12:09:16.013Z,11.80
2023-02-16T12:10:15.960Z,12.50
2023-02-16T12:11:15.943Z,12.10
2023-02-16T12:12:15.933Z,11.90
2023-02-16T12:13:15.982Z,12.50
2023-02-16T12:14:15.899Z,13.00
2023-02-16T12:15:15.889Z,11.30
2023-02-16T12:16:15.891Z,12.20
2023-02-16T12:17:15.860Z,11.80
2023-02-16T12:18:15.858Z,11.70
2023-02-16T12:19:15.864Z,11.70
2023-02-16T12:20:15.827Z,11.10
2023-02-16T12:21:17.299Z,12.30
2023-02-16T12:22:15.814Z,11.80
2023-02-16T12:23:15.799Z,11.60
2023-02-16T12:24:15.798Z,12.90
2023-02-16T12:25:15.770Z,12.90
2023-02-16T12:26:15.764Z,13.80
2023-02-16T12:27:15.748Z,12.00
2023-02-16T12:28:15.734Z,13.90
2023-02-16T12:29:15.716Z,13.20
2023-02-16T12:30:15.751Z,12.80
2023-02-16T12:31:15.813Z,13.50
2023-02-16T12:32:15.673Z,11.60
2023-02-16T12:33:15.706Z,12.20
2023-02-16T12:34:15.648Z,15.30
2023-02-16T12:35:15.646Z,12.80
2023-02-16T12:36:15.632Z,11.60
2023-02-16T12:37:15.606Z,12.10
2023-02-16T12:38:15.593Z,11.80
2023-02-16T12:39:15.620Z,14.00
2023-02-16T12:40:15.588Z,12.10
2023-02-16T12:41:15.578Z,11.30
2023-02-16T12:42:15.545Z,12.80
2023-02-16T12:43:15.533Z,11.90
2023-02-16T12:44:15.531Z,11.60
2023-02-16T12:45:15.508Z,11.90
2023-02-16T12:46:15.513Z,11.20
2023-02-16T12:47:15.487Z,12.10
2023-02-16T12:48:15.490Z,11.30
2023-02-16T12:49:15.478Z,11.30
2023-02-16T12:50:15.436Z,12.90
2023-02-16T12:51:15.426Z,11.70
2023-02-16T12:52:15.410Z,11.00
2023-02-16T12:53:15.422Z,12.30
2023-02-16T12:54:15.402Z,10.90
2023-02-16T12:55:15.393Z,12.90
2023-02-16T12:56:15.369Z,14.40
2023-02-16T12:57:15.360Z,11.20
2023-02-16T12:58:15.355Z,11.10
2023-02-16T12:59:15.348Z,14.00
2023-02-16T13:00:15.321Z,11.20
2023-02-16T13:01:15.319Z,11.40
2023-02-16T13:02:15.291Z,11.50
2023-02-16T13:03:15.365Z,11.10
2023-02-16T13:04:15.280Z,11.70
2023-02-16T13:05:15.254Z,11.80
2023-02-16T13:06:15.237Z,11.50
2023-02-16T13:07:15.248Z,10.40
2023-02-16T13:08:15.230Z,11.10
2023-02-16T13:09:15.236Z,10.70
2023-02-16T13:10:15.189Z,11.50
2023-02-16T13:11:15.224Z,11.50
2023-02-16T13:12:15.172Z,12.10
2023-02-16T13:13:15.174Z,14.30
2023-02-16T13:14:15.149Z,13.00
2023-02-16T13:15:15.141Z,12.00
2023-02-16T13:16:29.176Z,12.90
2023-02-16T13:17:16.205Z,10.70
2023-02-16T13:18:15.164Z,10.60
2023-02-16T13:19:15.392Z,12.80
2023-02-16T13:20:15.065Z,10.70
2023-02-16T13:21:15.097Z,12.40
2023-02-16T13:22:15.072Z,10.20